LFLN/SYT METAR and TAF weather

Enter ICAO airport designator
Station Type Date Time Source
LFLN METAR 2021/05/14 07:00 UTC NOAA

LFLN 140700Z AUTO 28009KT 250V310 9999 FEW029 11/08 Q1011 TEMPO BKN008


Station Type Date Time Source
LFLN Decoded METAR 2021/05/14 07:00 UTC NOAA

Saint-Yan, France (LFLN) 46-25N 004-01E 244M
May 14, 2021 - 03:00 AM EDT / 2021.05.14 0700 UTC
Wind: from the W (280 degrees) at 10 MPH (9 KT) (direction variable):0
Visibility: greater than 7 mile(s):0
Sky conditions: mostly clear
Temperature: 51 F (11 C)
Dew Point: 46 F (8 C)
Relative Humidity: 81%
Pressure (altimeter): 29.85 in. Hg (1011 hPa)
ob: LFLN 140700Z AUTO 28009KT 250V310 9999 FEW029 11/08 Q1011 TEMPO BKN008
cycle: 7

Station Type Date Time Source
LFLN TAF UTC NOAA

Error!

Example: see airport list